createdAt,value
2022-10-16T00:01:39.350Z,66.31
2022-10-16T00:04:40.151Z,66.42
2022-10-16T00:07:06.731Z,66.55
2022-10-16T00:09:34.725Z,66.47
2022-10-16T00:12:04.863Z,66.35
2022-10-16T00:14:31.466Z,66.16
2022-10-16T00:16:58.084Z,66.40
2022-10-16T00:19:25.660Z,65.51
2022-10-16T00:21:55.104Z,65.94
2022-10-16T00:24:21.760Z,66.50
2022-10-16T00:26:50.800Z,66.97
2022-10-16T00:29:17.446Z,67.00
2022-10-16T00:31:46.658Z,66.66
2022-10-16T00:34:17.575Z,66.89
2022-10-16T00:36:46.374Z,66.95
2022-10-16T00:39:13.094Z,66.74
2022-10-16T00:41:53.799Z,66.71
2022-10-16T00:45:01.153Z,66.68
2022-10-16T00:47:38.171Z,66.47
2022-10-16T00:50:10.427Z,66.25
2022-10-16T00:52:37.942Z,66.33
2022-10-16T00:55:05.962Z,66.25
2022-10-16T00:57:32.490Z,65.61
2022-10-16T00:59:59.857Z,65.68
2022-10-16T01:02:26.679Z,65.26
2022-10-16T01:04:56.993Z,65.83
2022-10-16T01:07:45.330Z,66.45
2022-10-16T01:10:58.229Z,65.93
2022-10-16T01:13:36.716Z,65.90
2022-10-16T01:16:09.563Z,65.50
2022-10-16T01:18:40.795Z,65.66
2022-10-16T01:21:11.040Z,65.56
2022-10-16T01:23:40.392Z,65.31
2022-10-16T01:26:21.932Z,65.35
2022-10-16T01:29:04.275Z,65.21
2022-10-16T01:31:33.403Z,64.81
2022-10-16T01:34:22.021Z,64.74
2022-10-16T01:36:56.526Z,64.38
2022-10-16T01:39:26.685Z,64.16
2022-10-16T01:41:58.062Z,63.63
2022-10-16T01:44:27.579Z,63.36
2022-10-16T01:46:55.186Z,62.84
2022-10-16T01:49:24.497Z,63.96
2022-10-16T01:51:57.307Z,64.29
2022-10-16T01:54:27.025Z,64.50
2022-10-16T01:56:54.472Z,63.92
2022-10-16T01:59:22.684Z,64.31
2022-10-16T02:01:53.840Z,64.68
2022-10-16T02:04:31.662Z,64.56
2022-10-16T02:06:58.596Z,65.98
2022-10-16T02:09:25.563Z,66.33
2022-10-16T02:11:56.270Z,65.93
2022-10-16T02:14:25.618Z,66.06
2022-10-16T02:16:52.403Z,65.44
2022-10-16T02:19:24.723Z,65.37
2022-10-16T02:21:58.616Z,64.46
2022-10-16T02:24:36.335Z,65.17
2022-10-16T02:27:21.153Z,64.93
2022-10-16T02:29:51.440Z,64.50
2022-10-16T02:32:24.197Z,64.46
2022-10-16T02:34:52.386Z,64.58
2022-10-16T02:37:19.759Z,63.14
2022-10-16T02:39:46.298Z,63.22
2022-10-16T02:42:14.555Z,63.65
2022-10-16T02:44:41.265Z,63.60
2022-10-16T02:47:07.924Z,63.47
2022-10-16T02:49:34.672Z,63.46
2022-10-16T02:52:01.341Z,62.62
2022-10-16T02:54:27.940Z,62.58
2022-10-16T02:57:00.492Z,62.44
2022-10-16T02:59:27.141Z,62.74
2022-10-16T03:01:53.690Z,62.08
2022-10-16T03:04:20.262Z,62.09
2022-10-16T03:06:46.873Z,62.20
2022-10-16T03:09:22.091Z,62.15
2022-10-16T03:11:48.726Z,61.28
2022-10-16T03:14:15.368Z,61.04
2022-10-16T03:16:51.128Z,61.61
2022-10-16T03:19:18.641Z,61.47
2022-10-16T03:21:45.718Z,61.29
2022-10-16T03:24:12.304Z,61.38
2022-10-16T03:26:39.000Z,60.45
2022-10-16T03:29:15.570Z,60.39
2022-10-16T03:31:42.205Z,60.69
2022-10-16T03:34:19.078Z,60.68
2022-10-16T03:36:45.742Z,60.44
2022-10-16T03:39:12.289Z,60.03
2022-10-16T03:41:39.002Z,59.87
2022-10-16T03:44:07.750Z,60.25
2022-10-16T03:46:34.478Z,60.06
2022-10-16T03:49:02.938Z,59.89
2022-10-16T03:51:30.555Z,59.98
2022-10-16T03:53:57.184Z,59.85
2022-10-16T03:56:26.001Z,59.84
2022-10-16T03:58:52.709Z,60.18
2022-10-16T04:01:19.309Z,59.70
2022-10-16T04:03:45.975Z,59.67
2022-10-16T04:06:12.539Z,59.46
2022-10-16T04:08:46.239Z,59.27
2022-10-16T04:11:12.988Z,57.89
2022-10-16T04:13:39.582Z,58.70
2022-10-16T04:16:06.356Z,58.67
2022-10-16T04:18:32.944Z,58.26
2022-10-16T04:21:06.848Z,58.13
2022-10-16T04:23:33.609Z,57.41
2022-10-16T04:26:00.648Z,57.64
2022-10-16T04:28:27.764Z,57.72
2022-10-16T04:30:54.504Z,57.48
2022-10-16T04:33:26.114Z,57.61
2022-10-16T04:36:01.090Z,52.77
2022-10-16T04:38:27.792Z,53.09
2022-10-16T04:40:54.514Z,52.95
2022-10-16T04:43:21.595Z,52.60
2022-10-16T04:45:48.268Z,52.32
2022-10-16T04:48:14.882Z,53.32
2022-10-16T04:50:42.180Z,52.96
2022-10-16T04:53:10.008Z,52.66
2022-10-16T04:55:37.211Z,53.18
2022-10-16T04:58:04.057Z,53.74
2022-10-16T05:00:30.706Z,54.45
2022-10-16T05:02:58.067Z,54.71
2022-10-16T05:05:24.922Z,53.98
2022-10-16T05:07:52.174Z,53.85
2022-10-16T05:10:19.063Z,53.54
2022-10-16T05:12:46.058Z,53.49
2022-10-16T05:15:12.967Z,53.46
2022-10-16T05:17:42.543Z,53.39
2022-10-16T05:20:11.814Z,53.59
2022-10-16T05:22:38.655Z,53.36
2022-10-16T05:25:05.700Z,53.57
2022-10-16T05:27:32.461Z,53.52
2022-10-16T05:29:59.021Z,54.30
2022-10-16T05:32:25.661Z,54.22
2022-10-16T05:34:55.113Z,54.16
2022-10-16T05:37:21.727Z,54.45
2022-10-16T05:39:48.312Z,54.81
2022-10-16T05:42:15.614Z,54.55
2022-10-16T05:44:42.296Z,54.35
2022-10-16T05:47:09.688Z,54.78
2022-10-16T05:49:39.072Z,54.52
2022-10-16T05:52:07.954Z,54.77
2022-10-16T05:54:34.514Z,54.56
2022-10-16T05:57:01.194Z,54.50
2022-10-16T05:59:35.230Z,56.30
2022-10-16T06:02:01.816Z,56.82
2022-10-16T06:04:28.544Z,57.17
2022-10-16T06:07:02.561Z,57.48
2022-10-16T06:09:29.389Z,58.09
2022-10-16T06:12:01.169Z,60.37
2022-10-16T06:14:34.204Z,61.10
2022-10-16T06:21:05.859Z,62.20
2022-10-16T06:24:08.417Z,62.96
2022-10-16T06:27:06.078Z,63.86
2022-10-16T06:31:17.754Z,65.09
2022-10-16T06:33:42.148Z,66.99
2022-10-16T06:36:18.336Z,68.67
2022-10-16T06:38:45.128Z,69.68
2022-10-16T06:41:16.847Z,70.53
2022-10-16T06:43:45.138Z,71.15
2022-10-16T06:46:13.194Z,71.11
2022-10-16T06:48:44.769Z,71.54
2022-10-16T06:51:19.270Z,71.81
2022-10-16T06:54:02.386Z,71.98
2022-10-16T06:56:31.726Z,72.09
2022-10-16T06:58:58.458Z,72.33
2022-10-16T07:01:25.643Z,72.83
2022-10-16T07:03:52.586Z,73.29
2022-10-16T07:06:21.062Z,73.84
2022-10-16T07:08:48.699Z,74.38
2022-10-16T07:11:17.988Z,74.47
2022-10-16T07:13:50.742Z,74.55
2022-10-16T07:16:25.907Z,74.99
2022-10-16T07:18:58.554Z,75.45
2022-10-16T07:21:26.667Z,75.87
2022-10-16T07:23:58.678Z,76.44
2022-10-16T07:26:26.839Z,76.55
2022-10-16T07:28:53.785Z,77.31
2022-10-16T07:31:28.220Z,78.60
2022-10-16T07:33:55.236Z,79.33
2022-10-16T07:36:22.404Z,79.97
2022-10-16T07:38:49.559Z,80.27
2022-10-16T07:41:18.308Z,80.57
2022-10-16T07:43:53.199Z,80.92
2022-10-16T07:46:21.113Z,80.80
2022-10-16T07:48:48.276Z,80.78
2022-10-16T07:51:17.262Z,80.98
2022-10-16T07:53:43.995Z,80.86
2022-10-16T07:56:11.720Z,80.92
2022-10-16T07:58:38.383Z,80.82
2022-10-16T08:01:09.889Z,80.82
2022-10-16T08:03:36.992Z,80.98
2022-10-16T08:06:04.495Z,81.14
2022-10-16T08:08:33.723Z,81.12
2022-10-16T08:11:00.420Z,81.43
2022-10-16T08:13:27.616Z,81.48
2022-10-16T08:15:57.392Z,81.75
2022-10-16T08:18:24.138Z,81.76
2022-10-16T08:20:59.446Z,82.00
2022-10-16T08:23:27.105Z,82.27
2022-10-16T08:25:55.063Z,82.34
2022-10-16T08:28:23.281Z,82.70
2022-10-16T08:30:50.037Z,82.77
2022-10-16T08:33:16.786Z,82.90
2022-10-16T08:35:43.356Z,83.46
2022-10-16T08:38:16.107Z,84.00
2022-10-16T08:40:46.542Z,84.52
2022-10-16T08:44:17.345Z,84.77
2022-10-16T08:47:08.945Z,85.10
2022-10-16T08:52:14.382Z,86.30
2022-10-16T08:54:48.490Z,86.62
2022-10-16T08:57:21.549Z,87.42
2022-10-16T09:00:06.513Z,88.02
2022-10-16T09:03:08.657Z,88.31
2022-10-16T09:06:14.167Z,89.50
2022-10-16T09:08:46.719Z,90.05
2022-10-16T09:11:28.676Z,89.64
2022-10-16T09:14:03.377Z,90.59
2022-10-16T09:16:44.314Z,91.55
2022-10-16T09:19:33.353Z,91.80
2022-10-16T09:22:14.193Z,92.13
2022-10-16T09:24:40.817Z,92.37
2022-10-16T09:27:13.663Z,93.65
2022-10-16T09:29:40.393Z,94.31
2022-10-16T09:32:19.607Z,95.77
2022-10-16T09:34:55.272Z,96.61
2022-10-16T09:37:28.712Z,97.88
2022-10-16T09:40:11.523Z,99.63
2022-10-16T09:42:38.331Z,100.00
2022-10-16T09:45:05.804Z,100.00
2022-10-16T09:47:45.827Z,100.00
2022-10-16T09:50:27.481Z,100.00
2022-10-16T09:53:26.539Z,100.00
2022-10-16T09:56:00.763Z,100.00
2022-10-16T09:58:43.304Z,100.00
2022-10-16T10:01:14.856Z,100.00
2022-10-16T10:03:47.655Z,100.00
2022-10-16T10:06:26.688Z,100.00
2022-10-16T10:09:03.456Z,100.00
2022-10-16T10:12:28.902Z,100.00
2022-10-16T10:15:01.681Z,100.00
2022-10-16T10:17:31.865Z,100.00
2022-10-16T10:19:59.589Z,100.00
2022-10-16T10:23:18.746Z,100.00
2022-10-16T10:26:02.001Z,100.00
2022-10-16T10:28:47.166Z,100.00
2022-10-16T10:31:46.430Z,100.00
2022-10-16T10:34:37.388Z,100.00
2022-10-16T10:37:18.918Z,100.00
2022-10-16T10:40:10.917Z,100.00
2022-10-16T10:42:45.787Z,100.00
2022-10-16T10:46:12.190Z,100.00
2022-10-16T10:49:15.413Z,100.00
2022-10-16T10:51:46.189Z,100.00
2022-10-16T10:54:42.195Z,100.00
2022-10-16T10:57:33.852Z,100.00
2022-10-16T11:00:22.015Z,100.00
2022-10-16T11:02:51.574Z,100.00
2022-10-16T11:05:29.350Z,100.00
2022-10-16T11:08:00.284Z,100.00
2022-10-16T11:10:32.020Z,100.00
2022-10-16T11:13:17.926Z,100.00
2022-10-16T11:16:20.625Z,100.00
2022-10-16T11:19:42.873Z,100.00
2022-10-16T11:22:28.878Z,100.00
2022-10-16T11:26:00.852Z,100.00
2022-10-16T11:28:35.827Z,100.00
2022-10-16T11:31:16.153Z,100.00
2022-10-16T11:34:23.176Z,100.00
2022-10-16T11:37:02.837Z,100.00
2022-10-16T11:39:30.880Z,100.00
2022-10-16T11:42:13.195Z,100.00
2022-10-16T11:45:01.251Z,100.00
2022-10-16T11:47:59.925Z,100.00
2022-10-16T11:50:36.212Z,100.00
2022-10-16T11:53:17.459Z,100.00
2022-10-16T11:55:46.987Z,100.00
2022-10-16T11:58:42.300Z,100.00
2022-10-16T12:01:31.238Z,100.00
2022-10-16T12:04:08.401Z,100.00
2022-10-16T12:06:37.922Z,100.00
2022-10-16T12:09:05.162Z,100.00
2022-10-16T12:11:34.246Z,100.00
2022-10-16T12:14:13.174Z,100.00
2022-10-16T12:16:51.279Z,100.00
2022-10-16T12:19:20.360Z,100.00
2022-10-16T12:21:51.650Z,100.00
2022-10-16T12:24:37.575Z,100.00
2022-10-16T12:27:06.990Z,100.00
2022-10-16T12:29:33.497Z,100.00
2022-10-16T12:32:00.262Z,100.00
2022-10-16T12:34:26.804Z,100.00
2022-10-16T12:36:54.792Z,100.00
2022-10-16T12:39:23.938Z,100.00
2022-10-16T12:42:05.247Z,100.00
2022-10-16T12:44:36.329Z,100.00
2022-10-16T12:47:07.137Z,100.00
2022-10-16T12:49:39.612Z,100.00
2022-10-16T12:52:27.144Z,100.00
2022-10-16T12:54:57.313Z,100.00
2022-10-16T12:57:35.525Z,100.00
2022-10-16T13:00:39.616Z,100.00
2022-10-16T13:03:25.415Z,100.00
2022-10-16T13:06:47.535Z,100.00
2022-10-16T13:09:32.309Z,100.00
2022-10-16T13:12:17.127Z,100.00
2022-10-16T13:15:19.876Z,100.00
2022-10-16T13:18:01.492Z,100.00
2022-10-16T13:20:35.388Z,100.00
2022-10-16T13:23:30.268Z,100.00
2022-10-16T13:26:07.280Z,100.00
2022-10-16T13:28:47.835Z,100.00
2022-10-16T13:31:21.645Z,100.00
2022-10-16T13:34:07.525Z,100.00
2022-10-16T13:36:51.162Z,100.00
2022-10-16T13:39:27.495Z,100.00
2022-10-16T13:45:01.170Z,100.00
2022-10-16T13:47:38.616Z,100.00
2022-10-16T13:50:19.190Z,100.00
2022-10-16T13:52:46.127Z,100.00
2022-10-16T13:55:19.446Z,100.00
2022-10-16T13:57:49.489Z,100.00
2022-10-16T14:00:24.810Z,100.00
2022-10-16T14:02:58.764Z,100.00
2022-10-16T14:05:27.990Z,100.00
2022-10-16T14:07:55.014Z,100.00
2022-10-16T14:10:27.789Z,100.00
2022-10-16T14:13:31.976Z,100.00
2022-10-16T14:16:35.366Z,100.00
2022-10-16T14:19:58.609Z,100.00
2022-10-16T14:22:34.932Z,100.00
2022-10-16T14:25:24.819Z,100.00
2022-10-16T14:28:09.086Z,100.00
2022-10-16T14:30:38.515Z,100.00
2022-10-16T14:33:07.079Z,100.00
2022-10-16T14:35:36.347Z,100.00
2022-10-16T14:38:07.300Z,100.00
2022-10-16T14:40:36.894Z,100.00
2022-10-16T14:43:04.485Z,100.00
2022-10-16T14:45:37.167Z,100.00
2022-10-16T14:48:18.859Z,100.00
2022-10-16T14:50:46.794Z,100.00
2022-10-16T14:53:14.284Z,100.00
2022-10-16T14:55:42.015Z,100.00
2022-10-16T14:58:20.559Z,100.00
2022-10-16T15:00:47.582Z,100.00
2022-10-16T15:03:14.609Z,100.00
2022-10-16T15:05:41.238Z,100.00
2022-10-16T15:08:10.318Z,100.00
2022-10-16T15:10:44.219Z,100.00
2022-10-16T15:13:13.832Z,100.00
2022-10-16T15:15:44.274Z,100.00
2022-10-16T15:18:11.007Z,100.00
2022-10-16T15:20:39.323Z,100.00
2022-10-16T15:23:17.835Z,100.00
2022-10-16T15:25:44.403Z,100.00
2022-10-16T15:28:11.883Z,100.00
2022-10-16T15:30:39.105Z,100.00
2022-10-16T15:33:09.716Z,99.62
2022-10-16T15:35:36.313Z,94.03
2022-10-16T15:38:02.843Z,91.19
2022-10-16T15:40:29.503Z,88.10
2022-10-16T15:42:56.210Z,85.46
2022-10-16T15:45:25.288Z,82.91
2022-10-16T15:47:51.898Z,80.74
2022-10-16T15:50:18.679Z,79.90
2022-10-16T15:52:45.331Z,78.57
2022-10-16T15:55:14.172Z,76.59
2022-10-16T15:57:43.527Z,75.57
2022-10-16T16:00:12.736Z,74.72
2022-10-16T16:02:40.029Z,73.69
2022-10-16T16:05:08.889Z,73.11
2022-10-16T16:07:36.549Z,72.53
2022-10-16T16:10:05.719Z,71.64
2022-10-16T16:12:32.862Z,71.09
2022-10-16T16:15:02.012Z,70.66
2022-10-16T16:17:32.409Z,70.68
2022-10-16T16:19:59.458Z,70.72
2022-10-16T16:22:26.573Z,70.83
2022-10-16T16:24:53.442Z,71.05
2022-10-16T16:27:20.902Z,71.17
2022-10-16T16:29:48.296Z,71.58
2022-10-16T16:32:14.919Z,71.96
2022-10-16T16:34:41.593Z,71.98
2022-10-16T16:37:08.501Z,72.04
2022-10-16T16:39:35.525Z,71.96
2022-10-16T16:42:03.919Z,71.86
2022-10-16T16:44:30.829Z,71.68
2022-10-16T16:46:57.420Z,71.63
2022-10-16T16:49:24.302Z,71.53
2022-10-16T16:51:51.008Z,71.45
2022-10-16T16:54:17.718Z,71.37
2022-10-16T16:56:45.279Z,71.10
2022-10-16T16:59:16.162Z,70.78
2022-10-16T17:01:42.894Z,70.89
2022-10-16T17:04:11.201Z,70.52
2022-10-16T17:06:38.239Z,70.42
2022-10-16T17:09:10.418Z,70.26
2022-10-16T17:11:37.031Z,70.03
2022-10-16T17:14:04.152Z,69.97
2022-10-16T17:16:37.966Z,69.87
2022-10-16T17:19:07.403Z,69.67
2022-10-16T17:21:34.491Z,69.59
2022-10-16T17:24:01.543Z,69.40
2022-10-16T17:26:28.664Z,69.21
2022-10-16T17:28:57.120Z,69.25
2022-10-16T17:31:26.558Z,69.18
2022-10-16T17:33:53.356Z,69.27
2022-10-16T17:36:20.624Z,69.19
2022-10-16T17:38:47.475Z,69.36
2022-10-16T17:41:22.077Z,69.38
2022-10-16T17:43:49.063Z,69.46
2022-10-16T17:46:17.448Z,69.64
2022-10-16T17:48:49.214Z,69.67
2022-10-16T17:51:18.472Z,69.58
2022-10-16T17:53:49.007Z,69.86
2022-10-16T17:56:18.085Z,69.62
2022-10-16T17:58:46.591Z,69.73
2022-10-16T18:01:22.438Z,69.82
2022-10-16T18:04:09.649Z,69.74
2022-10-16T18:06:36.936Z,69.88
2022-10-16T18:09:04.308Z,69.67
2022-10-16T18:11:31.166Z,69.83
2022-10-16T18:13:58.717Z,69.72
2022-10-16T18:16:26.508Z,69.82
2022-10-16T18:18:54.555Z,69.76
2022-10-16T18:21:21.403Z,69.75
2022-10-16T18:23:51.700Z,69.58
2022-10-16T18:26:19.089Z,69.34
2022-10-16T18:28:45.785Z,69.34
2022-10-16T18:31:15.051Z,69.32
2022-10-16T18:33:47.978Z,69.45
2022-10-16T18:36:15.222Z,69.73
2022-10-16T18:38:41.913Z,69.88
2022-10-16T18:41:08.500Z,69.88
2022-10-16T18:43:36.389Z,70.02
2022-10-16T18:46:05.761Z,69.89
2022-10-16T18:48:32.662Z,69.93
2022-10-16T18:51:20.045Z,70.09
2022-10-16T18:53:48.980Z,70.26
2022-10-16T18:56:17.749Z,70.40
2022-10-16T18:58:45.429Z,70.74
2022-10-16T19:01:16.439Z,70.81
2022-10-16T19:03:43.603Z,71.07
2022-10-16T19:06:12.134Z,71.50
2022-10-16T19:08:41.652Z,71.58
2022-10-16T19:11:11.470Z,71.73
2022-10-16T19:13:38.336Z,71.77
2022-10-16T19:16:20.015Z,71.78
2022-10-16T19:18:47.735Z,72.05
2022-10-16T19:21:15.441Z,72.10
2022-10-16T19:23:42.499Z,72.49
2022-10-16T19:26:12.075Z,72.66
2022-10-16T19:28:39.415Z,72.99
2022-10-16T19:31:08.678Z,73.32
2022-10-16T19:33:35.359Z,73.91
2022-10-16T19:36:15.722Z,74.46
2022-10-16T19:38:43.081Z,74.93
2022-10-16T19:41:12.445Z,75.49
2022-10-16T19:43:39.412Z,75.65
2022-10-16T19:46:08.311Z,76.04
2022-10-16T19:48:35.071Z,76.24
2022-10-16T19:51:02.007Z,76.49
2022-10-16T19:53:31.403Z,77.11
2022-10-16T19:55:58.403Z,77.61
2022-10-16T19:58:26.182Z,78.21
2022-10-16T20:00:54.746Z,78.90
2022-10-16T20:03:21.715Z,78.94
2022-10-16T20:05:56.612Z,79.62
2022-10-16T20:08:24.382Z,80.05
2022-10-16T20:10:52.663Z,80.19
2022-10-16T20:13:20.708Z,80.30
2022-10-16T20:15:48.131Z,80.02
2022-10-16T20:18:15.297Z,79.72
2022-10-16T20:20:44.237Z,79.73
2022-10-16T20:23:11.536Z,81.67
2022-10-16T20:25:40.041Z,82.98
2022-10-16T20:28:07.833Z,84.71
2022-10-16T20:30:39.250Z,86.77
2022-10-16T20:33:09.285Z,88.86
2022-10-16T20:35:49.481Z,90.30
2022-10-16T20:38:17.348Z,91.70
2022-10-16T20:40:46.237Z,93.01
2022-10-16T20:43:18.291Z,93.83
2022-10-16T20:45:45.828Z,94.41
2022-10-16T20:48:13.806Z,95.67
2022-10-16T20:50:41.203Z,96.68
2022-10-16T20:53:08.376Z,97.70
2022-10-16T20:55:36.876Z,99.10
2022-10-16T20:58:04.899Z,100.00
2022-10-16T21:00:31.697Z,100.00
2022-10-16T21:02:58.416Z,100.00
2022-10-16T21:05:28.706Z,99.23
2022-10-16T21:07:55.797Z,98.79
2022-10-16T21:10:23.040Z,97.91
2022-10-16T21:12:56.045Z,98.22
2022-10-16T21:15:22.982Z,97.75
2022-10-16T21:17:51.333Z,96.74
2022-10-16T21:20:17.937Z,94.72
2022-10-16T21:22:44.759Z,91.89
2022-10-16T21:25:11.413Z,88.57
2022-10-16T21:27:41.275Z,86.41
2022-10-16T21:30:09.827Z,82.64
2022-10-16T21:32:37.669Z,78.86
2022-10-16T21:35:05.272Z,76.48
2022-10-16T21:37:32.516Z,75.05
2022-10-16T21:39:59.092Z,74.04
2022-10-16T21:42:28.766Z,73.91
2022-10-16T21:44:55.466Z,73.88
2022-10-16T21:47:22.146Z,74.03
2022-10-16T21:49:48.792Z,74.39
2022-10-16T21:52:16.107Z,74.47
2022-10-16T21:54:42.795Z,74.57
2022-10-16T21:57:09.406Z,74.60
2022-10-16T21:59:36.029Z,74.64
2022-10-16T22:02:03.217Z,74.75
2022-10-16T22:04:30.105Z,74.81
2022-10-16T22:06:56.675Z,74.99
2022-10-16T22:09:23.316Z,74.82
2022-10-16T22:11:50.896Z,74.85
2022-10-16T22:14:19.209Z,74.85
2022-10-16T22:16:49.045Z,74.83
2022-10-16T22:19:17.909Z,74.65
2022-10-16T22:21:47.141Z,74.61
2022-10-16T22:24:15.139Z,74.53
2022-10-16T22:26:41.737Z,74.31
2022-10-16T22:29:09.632Z,74.24
2022-10-16T22:31:36.374Z,74.00
2022-10-16T22:34:04.100Z,73.52
2022-10-16T22:36:31.113Z,73.16
2022-10-16T22:38:58.669Z,72.83
2022-10-16T22:41:25.390Z,72.67
2022-10-16T22:43:52.481Z,72.50
2022-10-16T22:46:27.186Z,72.46
2022-10-16T22:48:55.899Z,72.49
2022-10-16T22:51:23.474Z,72.44
2022-10-16T22:53:50.698Z,72.57
2022-10-16T22:56:18.681Z,72.56
2022-10-16T22:58:45.509Z,72.46
2022-10-16T23:01:13.559Z,72.41
2022-10-16T23:03:40.216Z,72.57
2022-10-16T23:06:09.409Z,72.47
2022-10-16T23:08:36.058Z,72.59
2022-10-16T23:11:06.554Z,72.54
2022-10-16T23:13:36.135Z,72.43
2022-10-16T23:16:04.340Z,72.49
2022-10-16T23:18:31.561Z,72.44
2022-10-16T23:20:58.155Z,72.17
2022-10-16T23:23:24.789Z,72.33
2022-10-16T23:25:51.373Z,72.17
2022-10-16T23:28:18.005Z,72.52
2022-10-16T23:30:54.896Z,72.54
2022-10-16T23:33:21.444Z,72.48
2022-10-16T23:35:49.472Z,72.44
2022-10-16T23:38:16.172Z,72.50
2022-10-16T23:40:42.734Z,72.71
2022-10-16T23:43:09.349Z,72.62
2022-10-16T23:45:35.910Z,72.84
2022-10-16T23:48:02.496Z,72.66
2022-10-16T23:50:30.449Z,73.09
2022-10-16T23:52:57.081Z,73.13
2022-10-16T23:55:23.709Z,72.92
2022-10-16T23:57:50.409Z,72.97
